Time;durP1;ratioP1;P1;durP2;ratioP2;P2;SDS_P1;SDS_P2;PMS_P1;PMS_P2;Temp;Humidity;BMP_temperature;BMP_pressure;BME280_temperature;BME280_humidity;BME280_pressure;Samples;Min_cycle;Max_cycle;Signal;HPM_P1;HPM_P2
2022/07/23 00:02:15;;;;;;;11.1;9.9;;;;;;;20.82;93.86523;940.2924;;;;
2022/07/23 00:04:40;;;;;;;10.4;9.3;;;;;;;20.64;91.53516;940.2419;;;;
2022/07/23 00:07:06;;;;;;;9.9;8.9;;;;;;;20.72;91.48145;940.0991;;;;
2022/07/23 00:09:32;;;;;;;10.1;8.7;;;;;;;20.76;90.84863;940.0598;;;;
2022/07/23 00:11:57;;;;;;;9.5;8.4;;;;;;;20.82;89.63184;939.9871;;;;
2022/07/23 00:14:23;;;;;;;9;8.1;;;;;;;20.83;88.62891;939.9702;;;;
2022/07/23 00:16:49;;;;;;;10.1;7.7;;;;;;;20.84;87.49707;939.9497;;;;
2022/07/23 00:19:13;;;;;;;8.2;7.4;;;;;;;20.83;87.31934;939.868;;;;
2022/07/23 00:21:40;;;;;;;8.7;7.8;;;;;;;20.91;86.09766;940.005;;;;
2022/07/23 00:24:05;;;;;;;8.1;7.2;;;;;;;20.95;86.52637;939.9522;;;;
2022/07/23 00:26:30;;;;;;;8.3;7.5;;;;;;;21.03;85.87305;939.9405;;;;
2022/07/23 00:28:56;;;;;;;9;8.2;;;;;;;21.01;88.40723;939.9861;;;;
2022/07/23 00:31:21;;;;;;;9.6;7.4;;;;;;;20.93;87.71289;940.0783;;;;
2022/07/23 00:33:46;;;;;;;9.3;7.5;;;;;;;20.94;87.60938;940.146;;;;
2022/07/23 00:36:11;;;;;;;9.3;7.6;;;;;;;21.06;88.44141;940.0999;;;;
2022/07/23 00:38:39;;;;;;;11.6;8.8;;;;;;;21.07;89.42773;940.0648;;;;
2022/07/23 00:41:04;;;;;;;8.8;8;;;;;;;20.97;89.33594;940.1727;;;;
2022/07/23 00:43:34;;;;;;;9.9;8.9;;;;;;;21.11;89.62207;940.2871;;;;
2022/07/23 00:46:01;;;;;;;9.8;8.2;;;;;;;21.17;89.08203;940.2759;;;;
2022/07/23 00:48:26;;;;;;;9.8;8.8;;;;;;;21.25;88.30371;940.3592;;;;
2022/07/23 00:50:55;;;;;;;8.1;7.3;;;;;;;21.27;86.12988;940.4447;;;;
2022/07/23 00:53:20;;;;;;;9.4;8.4;;;;;;;21.3;87.64746;940.5458;;;;
2022/07/23 00:55:45;;;;;;;11.8;8.8;;;;;;;21.26;88.99609;940.4131;;;;
2022/07/23 00:58:10;;;;;;;10.2;8.8;;;;;;;21.3;89.76465;940.5005;;;;
2022/07/23 01:00:36;;;;;;;9.8;8.1;;;;;;;21.33;89.13965;940.528;;;;
2022/07/23 01:03:01;;;;;;;9.7;8.7;;;;;;;21.37;87.4502;940.5737;;;;
2022/07/23 01:05:27;;;;;;;8.9;7.9;;;;;;;21.1;89.91309;940.8478;;;;
2022/07/23 01:07:52;;;;;;;8.9;8;;;;;;;21.06;90.38184;940.939;;;;
2022/07/23 01:10:35;;;;;;;9.5;8.3;;;;;;;21.16;89.02148;940.9889;;;;
2022/07/23 01:12:42;;;;;;;8.5;7.6;;;;;;;21.2;89.45313;941.003;;;;
2022/07/23 01:15:07;;;;;;;9.4;8.4;;;;;;;21.06;88.84961;940.9277;;;;
2022/07/23 01:17:32;;;;;;;8.1;7.3;;;;;;;21;87.9502;940.9272;;;;
2022/07/23 01:19:58;;;;;;;9.3;7.9;;;;;;;20.97;89.125;941.0042;;;;
2022/07/23 01:22:23;;;;;;;8.2;7.4;;;;;;;20.81;89.95801;940.9998;;;;
2022/07/23 01:24:48;;;;;;;8.3;7.5;;;;;;;20.75;91.40723;941.0977;;;;
2022/07/23 01:27:17;;;;;;;8.4;7.6;;;;;;;20.63;91.33496;941.1848;;;;
2022/07/23 01:29:40;;;;;;;9.3;8.4;;;;;;;20.77;91.0957;941.2922;;;;
2022/07/23 01:32:05;;;;;;;9.7;8;;;;;;;20.8;90.25977;941.4494;;;;
2022/07/23 01:34:30;;;;;;;8.8;7.9;;;;;;;20.75;90.31836;941.6005;;;;
2022/07/23 01:36:55;;;;;;;9.4;8.4;;;;;;;20.69;91.32227;941.6278;;;;
2022/07/23 01:39:20;;;;;;;9.2;8.1;;;;;;;20.57;92.68848;941.5421;;;;
2022/07/23 01:41:48;;;;;;;9.9;7.9;;;;;;;20.59;92.05176;941.5489;;;;
2022/07/23 01:44:12;;;;;;;9.6;8.6;;;;;;;20.49;93.38574;941.5261;;;;
2022/07/23 01:46:39;;;;;;;9.3;8.4;;;;;;;20.52;92.5625;941.5095;;;;
2022/07/23 01:49:04;;;;;;;9.1;8.2;;;;;;;20.68;91.65918;941.4217;;;;
2022/07/23 01:51:32;;;;;;;8.9;8;;;;;;;20.75;91.45215;941.445;;;;
2022/07/23 01:53:57;;;;;;;9;7.6;;;;;;;20.71;90.33496;941.4776;;;;
2022/07/23 01:56:26;;;;;;;9.2;7.7;;;;;;;20.79;89.87402;941.4755;;;;
2022/07/23 01:58:52;;;;;;;8.6;7.7;;;;;;;20.8;89.80371;941.4584;;;;
2022/07/23 02:01:16;;;;;;;8.6;7.8;;;;;;;20.79;89.45313;941.3945;;;;
2022/07/23 02:03:41;;;;;;;8.6;7.7;;;;;;;20.76;90.97656;941.4026;;;;
2022/07/23 02:06:06;;;;;;;8.7;7.8;;;;;;;20.86;90.88086;941.4191;;;;
2022/07/23 02:08:35;;;;;;;8.4;7.6;;;;;;;20.89;90.64258;941.4611;;;;
2022/07/23 02:11:01;;;;;;;9.2;8.3;;;;;;;20.84;91.05078;941.499;;;;
2022/07/23 02:13:30;;;;;;;9;8.1;;;;;;;20.89;90.89551;941.5657;;;;
2022/07/23 02:16:00;;;;;;;8.7;7.7;;;;;;;20.79;89.6748;941.7458;;;;
2022/07/23 02:18:25;;;;;;;8.4;7.6;;;;;;;20.8;88.88086;941.8599;;;;
2022/07/23 02:20:53;;;;;;;8.4;7.5;;;;;;;20.76;89.25879;941.9967;;;;
2022/07/23 02:23:18;;;;;;;9.1;8.2;;;;;;;20.61;91.20215;942.0347;;;;
2022/07/23 02:25:45;;;;;;;9.6;8.2;;;;;;;20.47;92.49219;942.1675;;;;
2022/07/23 02:28:10;;;;;;;9;8.2;;;;;;;20.31;92.99707;942.1978;;;;
2022/07/23 02:30:39;;;;;;;9.1;8;;;;;;;20.31;93.1123;942.2271;;;;
2022/07/23 02:33:03;;;;;;;10.5;8.9;;;;;;;20.32;93.72363;942.2527;;;;
2022/07/23 02:35:31;;;;;;;10.3;9;;;;;;;20.43;93.86328;942.3293;;;;
2022/07/23 02:37:56;;;;;;;10.2;9.1;;;;;;;20.4;94.3457;942.272;;;;
2022/07/23 02:40:21;;;;;;;10.6;9.5;;;;;;;20.26;95.88184;942.2322;;;;
2022/07/23 02:42:46;;;;;;;9.6;8.7;;;;;;;20.28;95.70996;942.1671;;;;
2022/07/23 02:45:16;;;;;;;11.3;9.7;;;;;;;20.32;95.7998;942.1459;;;;
2022/07/23 02:47:45;;;;;;;10.9;9.5;;;;;;;20.24;96.00586;942.0183;;;;
2022/07/23 02:50:11;;;;;;;10.7;9.6;;;;;;;20.32;95.58008;941.9573;;;;
2022/07/23 02:52:40;;;;;;;10.6;9.2;;;;;;;20.39;94.47266;941.935;;;;
2022/07/23 02:55:05;;;;;;;11.2;9.7;;;;;;;20.34;94.43945;942.0201;;;;
2022/07/23 02:57:32;;;;;;;9.6;8.6;;;;;;;20.17;94.55273;942.1642;;;;
2022/07/23 02:59:57;;;;;;;10.4;8.6;;;;;;;19.94;95.82422;942.3368;;;;
2022/07/23 03:02:26;;;;;;;9.5;8.6;;;;;;;19.97;95.66699;942.4599;;;;
2022/07/23 03:04:55;;;;;;;10;9;;;;;;;20.13;95.45508;942.4529;;;;
2022/07/23 03:07:20;;;;;;;11.4;8.8;;;;;;;20.28;95.29199;942.484;;;;
2022/07/23 03:09:48;;;;;;;10.4;8.8;;;;;;;20.27;94.84668;942.3984;;;;
2022/07/23 03:12:14;;;;;;;9.7;8.5;;;;;;;20.13;94.05469;942.3625;;;;
2022/07/23 03:14:39;;;;;;;9.7;8.7;;;;;;;20.07;93.82129;942.1931;;;;
2022/07/23 03:17:10;;;;;;;13.1;8.8;;;;;;;20.03;93.90723;942.0872;;;;
2022/07/23 03:19:39;;;;;;;9.7;8.6;;;;;;;19.86;94.16211;941.944;;;;
2022/07/23 03:22:05;;;;;;;12.1;8.8;;;;;;;19.8;94.72266;941.6595;;;;
2022/07/23 03:27:02;;;;;;;9.6;8.1;;;;;;;19.22;99.13867;940.4993;;;;
2022/07/23 03:29:33;;;;;;;11.1;9.6;;;;;;;19.05;100;940.282;;;;
2022/07/23 03:32:06;;;;;;;10.6;9.4;;;;;;;18.99;100;940.4604;;;;
2022/07/23 03:34:31;;;;;;;12.1;9.3;;;;;;;18.95;100;940.4953;;;;
2022/07/23 03:36:57;;;;;;;10.6;9.2;;;;;;;19;100;940.4741;;;;
2022/07/23 03:39:22;;;;;;;10.2;9;;;;;;;19.02;99.08008;940.1897;;;;
2022/07/23 03:41:47;;;;;;;11.3;9.3;;;;;;;18.93;97.17676;940.0614;;;;
2022/07/23 03:44:17;;;;;;;9.8;8.8;;;;;;;18.99;98.06152;939.9691;;;;
2022/07/23 03:46:42;;;;;;;9.4;8.5;;;;;;;18.89;97.85352;939.959;;;;
2022/07/23 03:49:08;;;;;;;9.7;8.7;;;;;;;18.79;98.55273;939.9058;;;;
2022/07/23 03:51:41;;;;;;;9.8;8.7;;;;;;;18.93;95.62891;939.8395;;;;
2022/07/23 03:54:08;;;;;;;9.3;8.3;;;;;;;19.02;95.83203;940.0574;;;;
2022/07/23 03:56:34;;;;;;;11.2;9;;;;;;;18.95;98.48438;939.9441;;;;
2022/07/23 03:59:04;;;;;;;10.1;9.1;;;;;;;18.89;99.15625;939.6409;;;;
2022/07/23 04:02:34;;;;;;;9.6;8.1;;;;;;;18.99;97.71191;939.8585;;;;
2022/07/23 04:05:03;;;;;;;10;8.9;;;;;;;19;98.06348;939.7767;;;;
2022/07/23 04:07:29;;;;;;;10.6;9.4;;;;;;;19.01;97.63672;939.8298;;;;
2022/07/23 04:10:00;;;;;;;9.8;8.8;;;;;;;19.12;96.74121;939.8497;;;;
2022/07/23 04:12:25;;;;;;;11.3;9.5;;;;;;;19;96.90137;939.8873;;;;
2022/07/23 04:14:50;;;;;;;10.8;9.2;;;;;;;18.99;96.74805;939.8544;;;;
2022/07/23 04:17:15;;;;;;;11;9.9;;;;;;;19.14;96.79102;939.892;;;;
2022/07/23 04:19:47;;;;;;;9.7;8.7;;;;;;;19.01;97.13574;939.9064;;;;
2022/07/23 04:22:18;;;;;;;11.3;9;;;;;;;19.14;97.8623;939.8193;;;;
2022/07/23 04:24:46;;;;;;;12.2;9.6;;;;;;;19.18;97.09082;939.7943;;;;
2022/07/23 04:27:12;;;;;;;12;9.7;;;;;;;19.26;96.39746;939.8155;;;;
2022/07/23 04:29:37;;;;;;;10.4;9.3;;;;;;;19.37;96.15527;939.6935;;;;
2022/07/23 04:32:04;;;;;;;11.6;9.7;;;;;;;19.37;95.94629;939.5441;;;;
2022/07/23 04:34:29;;;;;;;10.2;9.1;;;;;;;19.48;95.92285;939.4418;;;;
2022/07/23 04:36:59;;;;;;;11.3;9.6;;;;;;;19.54;95.8877;939.364;;;;
2022/07/23 04:39:24;;;;;;;10.3;9.3;;;;;;;19.54;96.11133;939.25;;;;
2022/07/23 04:41:53;;;;;;;10.3;9.2;;;;;;;19.47;96.99121;939.2596;;;;
2022/07/23 04:44:24;;;;;;;11.2;8.8;;;;;;;19.42;95.59473;939.3406;;;;
2022/07/23 04:46:49;;;;;;;10.8;9.1;;;;;;;19.43;95.86426;939.283;;;;
2022/07/23 04:49:19;;;;;;;10.4;9.1;;;;;;;19.51;94.96094;939.3547;;;;
2022/07/23 04:51:48;;;;;;;9.9;8.9;;;;;;;19.66;94.43457;939.3937;;;;
2022/07/23 04:54:13;;;;;;;10;8.7;;;;;;;19.47;93.43652;939.4211;;;;
2022/07/23 04:56:40;;;;;;;9;8;;;;;;;19.47;93.74121;939.4639;;;;
2022/07/23 04:59:05;;;;;;;8.9;8;;;;;;;19.65;93.70996;939.5378;;;;
2022/07/23 05:01:30;;;;;;;9.1;8.2;;;;;;;19.77;92.33398;939.4454;;;;
2022/07/23 05:03:59;;;;;;;8.7;7.9;;;;;;;19.7;92.14551;939.4792;;;;
2022/07/23 05:06:31;;;;;;;9.2;8.3;;;;;;;19.66;92.69531;939.5756;;;;
2022/07/23 05:09:01;;;;;;;9.2;8.3;;;;;;;19.73;93.33105;939.64;;;;
2022/07/23 05:11:30;;;;;;;9.5;8.5;;;;;;;19.7;93.61426;939.7177;;;;
2022/07/23 05:13:55;;;;;;;10;8.9;;;;;;;19.6;94.72461;939.8472;;;;
2022/07/23 05:16:22;;;;;;;10.5;9.4;;;;;;;19.64;95.32617;939.7191;;;;
2022/07/23 05:18:51;;;;;;;9.4;8.5;;;;;;;19.69;94.57813;939.6387;;;;
2022/07/23 05:21:19;;;;;;;10;9;;;;;;;19.52;96.10742;939.5499;;;;
2022/07/23 05:23:44;;;;;;;10.4;8.9;;;;;;;19.54;96.75195;939.5328;;;;
2022/07/23 05:26:13;;;;;;;9.6;8.6;;;;;;;19.44;96.14648;939.5736;;;;
2022/07/23 05:28:38;;;;;;;8.7;7.8;;;;;;;19.46;94.60156;939.5513;;;;
2022/07/23 05:31:06;;;;;;;8.4;7.5;;;;;;;19.63;92.75977;939.6336;;;;
2022/07/23 05:33:31;;;;;;;9.7;8.7;;;;;;;19.82;94.17578;939.7028;;;;
2022/07/23 05:36:00;;;;;;;8.7;7.8;;;;;;;19.88;93.66504;939.682;;;;
2022/07/23 05:38:26;;;;;;;10.9;8.2;;;;;;;19.81;95.13086;939.7408;;;;
2022/07/23 05:40:56;;;;;;;7.9;7;;;;;;;19.76;95.14355;939.6418;;;;
2022/07/23 05:43:24;;;;;;;8.5;7.2;;;;;;;19.82;95.10938;939.6583;;;;
2022/07/23 05:45:49;;;;;;;7.6;6.8;;;;;;;19.86;94.44238;939.7941;;;;
2022/07/23 05:48:18;;;;;;;9.6;8.3;;;;;;;19.92;93.88184;939.8348;;;;
2022/07/23 05:50:48;;;;;;;9.2;8.2;;;;;;;19.8;94.08105;939.9398;;;;
2022/07/23 05:53:13;;;;;;;8.7;7.7;;;;;;;19.9;94.30957;940.0632;;;;
2022/07/23 05:55:41;;;;;;;8.2;7.4;;;;;;;19.98;94.24609;940.1614;;;;
2022/07/23 05:58:06;;;;;;;7.5;6.8;;;;;;;20.01;92.82813;940.2449;;;;
2022/07/23 06:00:34;;;;;;;8.1;7.3;;;;;;;19.89;94.68164;940.348;;;;
2022/07/23 06:02:59;;;;;;;7.2;6.5;;;;;;;19.79;95.6377;940.5472;;;;
2022/07/23 06:05:28;;;;;;;7.4;6.4;;;;;;;19.6;95.9834;940.6373;;;;
2022/07/23 06:07:55;;;;;;;6.9;6.2;;;;;;;19.82;94.74707;940.767;;;;
2022/07/23 06:10:21;;;;;;;7.3;6.6;;;;;;;19.87;94.43262;940.7378;;;;
2022/07/23 06:12:50;;;;;;;7.6;6.3;;;;;;;19.85;93.89258;940.9653;;;;
2022/07/23 06:15:15;;;;;;;6.1;5.3;;;;;;;19.97;94.2207;941.0073;;;;
2022/07/23 06:17:46;;;;;;;6.6;5.9;;;;;;;19.96;94.07813;941.1805;;;;
2022/07/23 06:20:14;;;;;;;6.8;6.2;;;;;;;20.04;94.99414;941.1756;;;;
2022/07/23 06:22:39;;;;;;;6.6;5.9;;;;;;;20.17;94.15723;941.121;;;;
2022/07/23 06:25:05;;;;;;;5.5;5;;;;;;;20.12;92.41895;941.0809;;;;
2022/07/23 06:27:30;;;;;;;5.5;5;;;;;;;20.08;92.88965;940.9098;;;;
2022/07/23 06:29:59;;;;;;;5.8;5.2;;;;;;;20.05;93.37402;940.9249;;;;
2022/07/23 06:32:24;;;;;;;6.1;5.5;;;;;;;20.14;92.82129;940.9018;;;;
2022/07/23 06:34:49;;;;;;;5.8;5.2;;;;;;;20.12;93.45996;940.8441;;;;
2022/07/23 06:37:14;;;;;;;6.2;5.6;;;;;;;20.21;93.66504;940.9001;;;;
2022/07/23 06:39:43;;;;;;;5.6;5.1;;;;;;;20.21;92.39258;940.8605;;;;
2022/07/23 06:42:08;;;;;;;6.2;5.3;;;;;;;20.23;92.02344;940.8176;;;;
2022/07/23 06:44:37;;;;;;;5.8;5.2;;;;;;;20.32;92.42578;940.7604;;;;
2022/07/23 06:47:02;;;;;;;5.8;5.3;;;;;;;20.32;91.20117;940.7514;;;;
2022/07/23 06:49:31;;;;;;;6.3;5.2;;;;;;;20.44;90.88672;940.8025;;;;
2022/07/23 06:51:56;;;;;;;5.9;5.3;;;;;;;20.44;90.60645;940.907;;;;
2022/07/23 06:54:21;;;;;;;5.8;4.8;;;;;;;20.55;90.40723;940.9327;;;;
2022/07/23 06:56:46;;;;;;;6;5;;;;;;;20.65;91.39648;940.9239;;;;
2022/07/23 06:59:14;;;;;;;6.3;5.2;;;;;;;20.79;89.63867;940.986;;;;
2022/07/23 07:01:39;;;;;;;4.8;4.4;;;;;;;21.08;86.66797;940.9536;;;;
2022/07/23 07:04:07;;;;;;;4.3;3.8;;;;;;;21.34;85.30078;941.0056;;;;
2022/07/23 07:06:32;;;;;;;4.6;3.8;;;;;;;21.28;82.90332;941.0623;;;;
2022/07/23 07:08:59;;;;;;;5;3.9;;;;;;;21.45;83.42773;941.1308;;;;
2022/07/23 07:11:25;;;;;;;4.8;3.9;;;;;;;21.36;83.63281;941.0049;;;;
2022/07/23 07:13:52;;;;;;;4.5;4.1;;;;;;;21.42;84.24121;940.9944;;;;
2022/07/23 07:16:24;;;;;;;5.3;4.5;;;;;;;21.46;84.2832;941.0261;;;;
2022/07/23 07:18:52;;;;;;;5;4.1;;;;;;;21.41;84.37891;941.0344;;;;
2022/07/23 07:21:17;;;;;;;4.1;3.7;;;;;;;21.12;81.85547;941.0928;;;;
2022/07/23 07:23:43;;;;;;;3.8;3.5;;;;;;;21.14;82.69141;941.0234;;;;
2022/07/23 07:26:08;;;;;;;3.8;3.4;;;;;;;21.2;82.09277;940.9853;;;;
2022/07/23 07:28:34;;;;;;;3.6;3.3;;;;;;;21.29;82.39063;941.0879;;;;
2022/07/23 07:30:59;;;;;;;4.1;3.7;;;;;;;21.46;85.02148;941.1556;;;;
2022/07/23 07:33:27;;;;;;;4.4;3.9;;;;;;;21.62;85.43848;941.1502;;;;
2022/07/23 07:35:52;;;;;;;4.7;3.9;;;;;;;21.64;83.61523;941.1711;;;;
2022/07/23 07:38:18;;;;;;;4.3;3.9;;;;;;;21.71;83.85156;941.1838;;;;
2022/07/23 07:40:43;;;;;;;6.5;3.4;;;;;;;21.86;84.14941;941.1187;;;;
2022/07/23 07:43:13;;;;;;;3.6;3.3;;;;;;;21.88;81.14063;941.0925;;;;
2022/07/23 07:45:42;;;;;;;4.3;3.2;;;;;;;21.83;82.05762;941.1158;;;;
2022/07/23 07:48:07;;;;;;;3.6;3.3;;;;;;;21.8;79.34473;941.0912;;;;
2022/07/23 07:50:32;;;;;;;4.1;3;;;;;;;21.89;80.66309;941.0765;;;;
2022/07/23 07:53:02;;;;;;;3.8;2.9;;;;;;;21.81;79.69922;941.2026;;;;
2022/07/23 07:55:28;;;;;;;4.1;3.4;;;;;;;21.62;79.53613;941.2216;;;;
2022/07/23 07:57:54;;;;;;;3.5;3.1;;;;;;;21.75;79.52441;941.2661;;;;
2022/07/23 08:00:19;;;;;;;3.9;3.5;;;;;;;21.76;80.00781;941.2463;;;;
2022/07/23 08:02:44;;;;;;;3.7;3.4;;;;;;;21.95;81.00098;941.2191;;;;
2022/07/23 08:05:15;;;;;;;3.4;3.1;;;;;;;22.31;80.23438;941.1205;;;;
2022/07/23 08:07:40;;;;;;;3.7;3;;;;;;;22.86;79.71191;941.0781;;;;
2022/07/23 08:10:05;;;;;;;3.6;3.2;;;;;;;23.28;76.13086;941.0122;;;;
2022/07/23 08:12:30;;;;;;;3.9;2.7;;;;;;;23.6;74.30371;940.9744;;;;
2022/07/23 08:14:55;;;;;;;3.9;3.5;;;;;;;23.89;71.80957;941.0911;;;;
2022/07/23 08:17:24;;;;;;;3.7;3.3;;;;;;;24.24;70.55859;941.048;;;;
2022/07/23 08:19:49;;;;;;;3.3;3;;;;;;;24.02;69.05176;941.1497;;;;
2022/07/23 08:22:17;;;;;;;4.9;2.9;;;;;;;23.97;70.28027;941.1351;;;;
2022/07/23 08:24:42;;;;;;;3.6;2.9;;;;;;;23.97;68.375;941.1652;;;;
2022/07/23 08:27:11;;;;;;;2.8;2.5;;;;;;;23.91;66.50391;941.1189;;;;
2022/07/23 08:29:36;;;;;;;3.2;2.8;;;;;;;24.11;70.73926;941.1903;;;;
2022/07/23 08:32:04;;;;;;;4;2.5;;;;;;;24.18;64.97852;941.1017;;;;
2022/07/23 08:34:29;;;;;;;3.4;3;;;;;;;23.95;65.00391;941.1181;;;;
2022/07/23 08:36:58;;;;;;;3.2;2.9;;;;;;;23.77;66.62598;941.1586;;;;
2022/07/23 08:39:27;;;;;;;3.2;2.9;;;;;;;23.87;69.87695;941.213;;;;
2022/07/23 08:41:51;;;;;;;3.2;2.9;;;;;;;24.28;69.05664;941.2159;;;;
2022/07/23 08:44:19;;;;;;;2.8;2.6;;;;;;;24.53;67.96289;941.1995;;;;
2022/07/23 08:46:44;;;;;;;4.2;3.1;;;;;;;24.98;64.13965;941.1716;;;;
2022/07/23 08:49:13;;;;;;;3;2.7;;;;;;;25.55;64.46777;941.1283;;;;
2022/07/23 08:51:38;;;;;;;3;2.8;;;;;;;26.39;60.06836;941.1006;;;;
2022/07/23 08:54:06;;;;;;;2.8;2.6;;;;;;;26.05;60.07031;941.0506;;;;
2022/07/23 08:56:31;;;;;;;3.2;2.9;;;;;;;25.98;58.19238;940.9988;;;;
2022/07/23 08:58:58;;;;;;;2.9;2.6;;;;;;;25.36;60.32031;940.9844;;;;
2022/07/23 09:01:23;;;;;;;3.1;2.6;;;;;;;25.18;58.86816;941.1238;;;;
2022/07/23 09:03:49;;;;;;;2.8;2.5;;;;;;;24.9;61.36719;941.1337;;;;
2022/07/23 09:06:14;;;;;;;3.8;2.8;;;;;;;24.73;61.01367;941.19;;;;
2022/07/23 09:08:39;;;;;;;3.2;2.9;;;;;;;24.74;62.86719;941.152;;;;
2022/07/23 09:11:04;;;;;;;3.2;2.9;;;;;;;24.8;63.88965;941.0544;;;;
2022/07/23 09:13:29;;;;;;;3.9;3.3;;;;;;;24.72;65.06836;941.0692;;;;
2022/07/23 09:15:56;;;;;;;4.7;3.1;;;;;;;24.76;62.25586;941.017;;;;
2022/07/23 09:18:21;;;;;;;3.6;3.3;;;;;;;24.72;63.65332;941.1138;;;;
2022/07/23 09:20:47;;;;;;;3.5;3;;;;;;;24.86;67.20117;941.0219;;;;
2022/07/23 09:23:12;;;;;;;5.6;3.2;;;;;;;25;62.05371;940.9977;;;;
2022/07/23 09:25:37;;;;;;;3.3;3;;;;;;;24.95;61.82324;940.9783;;;;
2022/07/23 09:28:02;;;;;;;3.3;3;;;;;;;25.29;63.95898;940.9127;;;;
2022/07/23 09:30:29;;;;;;;3.3;2.9;;;;;;;25.59;59.99609;940.8995;;;;
2022/07/23 09:32:54;;;;;;;3.1;2.9;;;;;;;25.69;59.92676;940.9;;;;
2022/07/23 09:35:21;;;;;;;3.1;2.8;;;;;;;25.89;64.75488;940.9639;;;;
2022/07/23 09:37:47;;;;;;;2.9;2.7;;;;;;;25.9;64.10449;940.9445;;;;
2022/07/23 09:40:13;;;;;;;3.4;3.1;;;;;;;25.84;58.30469;940.8781;;;;
2022/07/23 09:42:40;;;;;;;3.3;3;;;;;;;25.9;61.03027;940.9494;;;;
2022/07/23 09:45:05;;;;;;;3.3;3;;;;;;;25.81;59.43555;940.8978;;;;
2022/07/23 09:47:30;;;;;;;3.2;2.9;;;;;;;25.6;61.08496;940.8439;;;;
2022/07/23 09:49:59;;;;;;;3.9;3.1;;;;;;;25.77;59.37207;940.7703;;;;
2022/07/23 09:52:23;;;;;;;3.1;2.8;;;;;;;25.88;60.02344;940.7179;;;;
2022/07/23 09:54:48;;;;;;;2.9;2.7;;;;;;;26.09;58.17188;940.6903;;;;
2022/07/23 09:57:15;;;;;;;3.5;3;;;;;;;25.9;57.11816;940.7494;;;;
2022/07/23 09:59:39;;;;;;;3.5;3.2;;;;;;;26.01;59.31934;940.7878;;;;
2022/07/23 10:02:05;;;;;;;3.8;3.4;;;;;;;26;60.96289;940.6836;;;;
2022/07/23 10:04:31;;;;;;;3.3;2.9;;;;;;;25.78;59.0293;940.66;;;;
2022/07/23 10:06:57;;;;;;;19.4;8.6;;;;;;;25.61;59.2207;940.6539;;;;
2022/07/23 10:09:25;;;;;;;29;12.6;;;;;;;25.6;60.96777;940.6038;;;;
2022/07/23 10:11:50;;;;;;;25.4;12.3;;;;;;;25.74;59.37891;940.6047;;;;
2022/07/23 10:14:16;;;;;;;51.6;21.7;;;;;;;25.88;57.70703;940.6703;;;;
2022/07/23 10:16:42;;;;;;;5.7;4.2;;;;;;;25.96;57.39746;940.6602;;;;
2022/07/23 10:19:10;;;;;;;7.6;4.6;;;;;;;26.03;57.53711;940.6922;;;;
2022/07/23 10:21:40;;;;;;;3.3;3;;;;;;;26.36;57.6377;940.6725;;;;
2022/07/23 10:24:05;;;;;;;3.4;2.7;;;;;;;26.51;56.40234;940.668;;;;
2022/07/23 10:26:30;;;;;;;3.3;3;;;;;;;26.54;58.25391;940.601;;;;
2022/07/23 10:28:57;;;;;;;3.3;3;;;;;;;26.98;55.98828;940.5109;;;;
2022/07/23 10:31:26;;;;;;;3;2.8;;;;;;;27.42;51.84277;940.5262;;;;
2022/07/23 10:33:51;;;;;;;3.3;3;;;;;;;27.57;53.37988;940.5302;;;;
2022/07/23 10:36:17;;;;;;;4;3.1;;;;;;;27.91;56.99414;940.5502;;;;
2022/07/23 10:38:42;;;;;;;3.2;2.9;;;;;;;27.64;54.62109;940.5181;;;;
2022/07/23 10:41:11;;;;;;;3.2;2.9;;;;;;;27.63;55.14258;940.4994;;;;
2022/07/23 10:43:36;;;;;;;2.8;2.6;;;;;;;27.51;54.04883;940.3705;;;;
2022/07/23 10:46:01;;;;;;;3.3;3;;;;;;;27.19;58.29102;940.3471;;;;
2022/07/23 10:48:27;;;;;;;3.6;3.1;;;;;;;27.27;55.78613;940.3557;;;;
2022/07/23 10:50:52;;;;;;;3.5;3.2;;;;;;;27.21;56.57324;940.3881;;;;
2022/07/23 10:53:19;;;;;;;3.3;3;;;;;;;27.28;59.10938;940.3322;;;;
2022/07/23 10:55:48;;;;;;;5.9;3.3;;;;;;;27.41;57.8916;940.4221;;;;
2022/07/23 10:58:10;;;;;;;3.3;3;;;;;;;27.43;54.81055;940.403;;;;
2022/07/23 11:00:35;;;;;;;3;2.8;;;;;;;27.64;57.51758;940.3682;;;;
2022/07/23 11:03:00;;;;;;;3.2;2.9;;;;;;;27.57;56.40625;940.337;;;;
2022/07/23 11:05:29;;;;;;;3.1;2.8;;;;;;;27.66;53.15332;940.3373;;;;
2022/07/23 11:07:54;;;;;;;3.4;2.9;;;;;;;27.4;59.31445;940.2996;;;;
2022/07/23 11:10:21;;;;;;;3.3;3;;;;;;;27.47;57.12891;940.2866;;;;
2022/07/23 11:12:47;;;;;;;3.3;3;;;;;;;27.31;57.93848;940.3044;;;;
2022/07/23 11:15:16;;;;;;;3.5;3.2;;;;;;;27.46;56.80664;940.307;;;;
2022/07/23 11:17:45;;;;;;;3.5;3.1;;;;;;;27.41;54.9502;940.2921;;;;
2022/07/23 11:20:12;;;;;;;4.1;3.4;;;;;;;27.38;57.02148;940.2338;;;;
2022/07/23 11:22:42;;;;;;;3.4;3.1;;;;;;;27.4;56.52539;940.2419;;;;
2022/07/23 11:25:14;;;;;;;3.7;3.3;;;;;;;27.67;53.08301;940.233;;;;
2022/07/23 11:27:42;;;;;;;4.5;3.4;;;;;;;28.06;57.14453;940.2174;;;;
2022/07/23 11:30:13;;;;;;;3.9;3.4;;;;;;;28.25;53.77051;940.2095;;;;
2022/07/23 11:32:40;;;;;;;3.2;2.9;;;;;;;27.85;57.39063;940.176;;;;
2022/07/23 11:35:08;;;;;;;3.4;3.1;;;;;;;28.02;55.3457;940.1422;;;;
2022/07/23 11:37:34;;;;;;;3.2;2.9;;;;;;;28.1;54.62988;940.1211;;;;
2022/07/23 11:40:02;;;;;;;3.8;3.5;;;;;;;28.6;53.2168;940.0761;;;;
2022/07/23 11:42:27;;;;;;;4.4;3.4;;;;;;;28.84;52.125;940.027;;;;
2022/07/23 11:44:55;;;;;;;3.7;3.4;;;;;;;28.87;52.18945;940.0622;;;;
2022/07/23 11:47:23;;;;;;;3.7;3.1;;;;;;;28.43;56.47656;940.0048;;;;
2022/07/23 11:49:48;;;;;;;3.6;3.2;;;;;;;28.44;56.45508;940.0672;;;;
2022/07/23 11:52:14;;;;;;;3.3;3;;;;;;;29.04;51.66113;940.0005;;;;
2022/07/23 11:54:39;;;;;;;3.7;3.1;;;;;;;28.09;53.9043;939.9839;;;;
2022/07/23 11:57:04;;;;;;;3.2;3;;;;;;;28.59;55.37988;939.9537;;;;
2022/07/23 11:59:29;;;;;;;3.8;3.4;;;;;;;28.85;56.80469;939.9087;;;;
2022/07/23 12:01:55;;;;;;;4.1;3.7;;;;;;;29.16;54.05664;939.8967;;;;
2022/07/23 12:04:23;;;;;;;3.7;3.3;;;;;;;29.33;52.11133;939.9048;;;;
2022/07/23 12:06:48;;;;;;;3.9;3.4;;;;;;;29.09;52.20215;939.9266;;;;
2022/07/23 12:09:13;;;;;;;3.5;3.2;;;;;;;29.31;50.91699;939.8755;;;;
2022/07/23 12:11:41;;;;;;;3.1;2.9;;;;;;;29.52;49.85547;939.9208;;;;
2022/07/23 12:14:06;;;;;;;3;2.7;;;;;;;29.54;49.15527;939.8981;;;;
2022/07/23 12:16:32;;;;;;;3.7;3.2;;;;;;;29.63;51.47949;939.9325;;;;
2022/07/23 12:18:57;;;;;;;4.5;3.3;;;;;;;29.7;49.54297;939.8719;;;;
2022/07/23 12:21:24;;;;;;;6.3;3.9;;;;;;;28.84;53.14941;939.863;;;;
2022/07/23 12:23:49;;;;;;;5.7;4;;;;;;;28.95;55.79199;939.8383;;;;
2022/07/23 12:26:16;;;;;;;5.5;4;;;;;;;28.64;54.625;939.834;;;;
2022/07/23 12:28:45;;;;;;;6.2;4.5;;;;;;;28.62;56.44238;939.8611;;;;
2022/07/23 12:31:09;;;;;;;4.8;4.2;;;;;;;28.96;53.55566;939.8259;;;;
2022/07/23 12:33:38;;;;;;;4;3.6;;;;;;;29.07;54.36719;939.7978;;;;
2022/07/23 12:36:03;;;;;;;4.2;3.8;;;;;;;28.91;54.03809;939.7703;;;;
2022/07/23 12:38:28;;;;;;;5.4;4.1;;;;;;;29.09;53.48828;939.795;;;;
2022/07/23 12:40:53;;;;;;;5.1;3.5;;;;;;;29.05;53.00781;939.7719;;;;
2022/07/23 12:43:22;;;;;;;13.2;7;;;;;;;28.84;54.12598;939.7437;;;;
2022/07/23 12:45:47;;;;;;;22.3;11.6;;;;;;;29.22;53.36035;939.6921;;;;
2022/07/23 12:48:16;;;;;;;20.9;9.2;;;;;;;29.41;52.81055;939.6675;;;;
2022/07/23 12:50:41;;;;;;;5.1;3.9;;;;;;;29.29;51.02344;939.628;;;;
2022/07/23 12:53:06;;;;;;;4.7;3.9;;;;;;;29.55;52.46875;939.6221;;;;
2022/07/23 12:55:31;;;;;;;6.8;4.5;;;;;;;29.27;54.61719;939.6211;;;;
2022/07/23 12:57:59;;;;;;;5.8;4.3;;;;;;;29.09;55.40527;939.623;;;;
2022/07/23 13:00:24;;;;;;;5.3;4.2;;;;;;;28.48;57.94727;939.6282;;;;
2022/07/23 13:02:49;;;;;;;7.2;4.8;;;;;;;28.67;55.24609;939.5822;;;;
2022/07/23 13:05:15;;;;;;;6.8;4.6;;;;;;;28.8;52.32324;939.595;;;;
2022/07/23 13:07:44;;;;;;;5.9;5.1;;;;;;;28.59;54.95117;939.6033;;;;
2022/07/23 13:10:12;;;;;;;5.1;4.6;;;;;;;28.42;55.44238;939.5174;;;;
2022/07/23 13:12:39;;;;;;;5.9;4.7;;;;;;;28.8;54.17969;939.5877;;;;
2022/07/23 13:15:04;;;;;;;4.9;4.4;;;;;;;28.86;52.67578;939.6083;;;;
2022/07/23 13:17:29;;;;;;;5.5;4.9;;;;;;;28.63;55.43262;939.6403;;;;
2022/07/23 13:19:56;;;;;;;4.7;4.3;;;;;;;28.79;52.58398;939.6349;;;;
2022/07/23 13:22:21;;;;;;;5.4;4.3;;;;;;;29.03;52.20801;939.6418;;;;
2022/07/23 13:24:48;;;;;;;6;4.6;;;;;;;29.2;51.55957;939.654;;;;
2022/07/23 13:27:13;;;;;;;5;4.5;;;;;;;29.08;52.6416;939.6532;;;;
2022/07/23 13:29:38;;;;;;;4.6;4.2;;;;;;;29.24;51.42188;939.5616;;;;
2022/07/23 13:32:06;;;;;;;4.7;4.3;;;;;;;29.07;51.85645;939.6197;;;;
2022/07/23 13:34:31;;;;;;;5.4;4.8;;;;;;;29.31;50.88086;939.6478;;;;
2022/07/23 13:37:01;;;;;;;6.1;4.6;;;;;;;29.62;49.90234;939.6872;;;;
2022/07/23 13:39:26;;;;;;;5.2;4.7;;;;;;;29.45;52.60156;939.7477;;;;
2022/07/23 13:41:54;;;;;;;5.2;4.7;;;;;;;29.19;52.57227;939.7035;;;;
2022/07/23 13:44:20;;;;;;;5.3;4.4;;;;;;;29.28;51.10449;939.7087;;;;
2022/07/23 13:46:44;;;;;;;5.1;4.6;;;;;;;29.29;51.10547;939.7094;;;;
2022/07/23 13:49:09;;;;;;;4.5;4.1;;;;;;;29.54;51.72949;939.6825;;;;
2022/07/23 13:51:38;;;;;;;5.4;4.5;;;;;;;29.61;49.46094;939.6813;;;;
2022/07/23 13:54:03;;;;;;;4.9;4.4;;;;;;;29.77;49.33496;939.6774;;;;
2022/07/23 13:56:32;;;;;;;5.3;4.8;;;;;;;30.05;49.87891;939.685;;;;
2022/07/23 13:58:57;;;;;;;5.1;4.6;;;;;;;29.87;48.68945;939.6744;;;;
2022/07/23 14:01:24;;;;;;;5.3;4.8;;;;;;;29.06;51.72266;939.6744;;;;
2022/07/23 14:03:49;;;;;;;4.9;4.5;;;;;;;29.05;50.15039;939.6481;;;;
2022/07/23 14:06:14;;;;;;;6.1;4.6;;;;;;;29.09;49.9043;939.7034;;;;
2022/07/23 14:08:42;;;;;;;5.3;4.8;;;;;;;28.71;51.16992;939.7367;;;;
2022/07/23 14:11:07;;;;;;;4.7;4.2;;;;;;;28.54;51.27051;939.7653;;;;
2022/07/23 14:13:36;;;;;;;5.1;4.6;;;;;;;28.39;52.44141;939.7578;;;;
2022/07/23 14:16:03;;;;;;;5.4;4.6;;;;;;;28.49;52.39453;939.7459;;;;
2022/07/23 14:18:32;;;;;;;5.9;4.8;;;;;;;28.42;53.11035;939.7465;;;;
2022/07/23 14:21:00;;;;;;;5;4.5;;;;;;;28.56;52.73633;939.6448;;;;
2022/07/23 14:23:25;;;;;;;5.9;4.6;;;;;;;28.61;52.20605;939.6316;;;;
2022/07/23 14:25:50;;;;;;;6;5.1;;;;;;;28.54;53.31641;939.5542;;;;